createdAt,value
2017-06-20T21:40:36.413Z,8.60
2017-06-20T21:43:04.103Z,9.37
2017-06-20T21:45:31.576Z,7.37
2017-06-20T21:47:59.362Z,7.13
2017-06-20T21:50:26.898Z,7.00
2017-06-20T21:52:54.358Z,7.63
2017-06-20T21:55:21.810Z,7.33
2017-06-20T21:57:49.245Z,8.10
2017-06-20T22:00:16.722Z,7.30
2017-06-20T22:02:44.586Z,6.50
2017-06-20T22:05:12.042Z,8.00
2017-06-20T22:07:39.498Z,7.03
2017-06-20T22:10:06.925Z,7.27
2017-06-20T22:12:34.405Z,6.80
2017-06-20T22:15:01.842Z,8.93
2017-06-20T22:17:29.322Z,7.07
2017-06-20T22:19:56.770Z,7.10
2017-06-20T22:22:24.194Z,7.40
2017-06-20T22:24:51.613Z,6.03
2017-06-20T22:27:19.141Z,6.37
2017-06-20T22:29:46.895Z,6.30
2017-06-20T22:32:14.345Z,7.27
2017-06-20T22:34:41.769Z,6.50
2017-06-20T22:37:09.957Z,6.93
2017-06-20T22:39:37.394Z,6.73
2017-06-20T22:42:05.625Z,6.60
2017-06-20T22:44:33.082Z,7.10
2017-06-20T22:47:01.233Z,6.83
2017-06-20T22:49:28.662Z,6.70
2017-06-20T22:51:56.861Z,8.20
2017-06-20T22:54:24.531Z,10.40
2017-06-20T22:56:52.002Z,10.20
2017-06-20T22:59:19.458Z,8.57
2017-06-20T23:01:46.914Z,6.30
2017-06-20T23:04:14.369Z,6.63
2017-06-20T23:06:41.786Z,5.80
2017-06-20T23:09:09.224Z,6.10
2017-06-20T23:11:37.405Z,6.00
2017-06-20T23:14:05.630Z,5.80
2017-06-20T23:16:33.054Z,5.90
2017-06-20T23:19:00.493Z,6.20
2017-06-20T23:21:28.730Z,6.23
2017-06-20T23:23:56.150Z,6.00
2017-06-20T23:26:23.577Z,6.70
2017-06-20T23:28:51.797Z,5.70
2017-06-20T23:31:19.250Z,5.70
2017-06-20T23:33:46.709Z,5.40
2017-06-20T23:36:14.270Z,5.50
2017-06-20T23:38:41.693Z,5.60
2017-06-20T23:41:09.178Z,5.57
2017-06-20T23:43:36.637Z,6.00
2017-06-20T23:46:04.098Z,6.30
2017-06-20T23:48:31.549Z,5.80
2017-06-20T23:50:59.005Z,5.97
2017-06-20T23:53:26.462Z,6.03
2017-06-20T23:55:53.918Z,5.77
2017-06-20T23:58:21.342Z,6.03
